createdAt,value
2022-08-19T00:01:28.813Z,5.57
2022-08-19T00:04:02.453Z,6.32
2022-08-19T00:06:30.613Z,6.40
2022-08-19T00:08:58.456Z,6.68
2022-08-19T00:11:26.319Z,6.20
2022-08-19T00:13:53.543Z,5.93
2022-08-19T00:16:20.519Z,5.45
2022-08-19T00:18:52.771Z,5.50
2022-08-19T00:21:19.258Z,5.50
2022-08-19T00:23:45.891Z,5.63
2022-08-19T00:26:12.996Z,5.50
2022-08-19T00:28:39.639Z,5.70
2022-08-19T00:31:07.952Z,6.05
2022-08-19T00:33:34.659Z,7.00
2022-08-19T00:36:02.429Z,6.32
2022-08-19T00:41:06.201Z,6.15
2022-08-19T00:43:33.056Z,6.80
2022-08-19T00:46:00.401Z,6.80
2022-08-19T00:48:26.974Z,6.40
2022-08-19T00:50:56.416Z,7.03
2022-08-19T00:53:27.311Z,7.70
2022-08-19T00:55:56.179Z,8.25
2022-08-19T00:58:28.341Z,6.68
2022-08-19T01:00:55.014Z,7.30
2022-08-19T01:03:22.615Z,8.13
2022-08-19T01:05:51.461Z,8.07
2022-08-19T01:08:19.747Z,8.05
2022-08-19T01:10:50.128Z,7.32
2022-08-19T01:13:19.957Z,7.53
2022-08-19T01:15:51.387Z,7.78
2022-08-19T01:18:20.246Z,8.35
2022-08-19T01:20:48.496Z,7.03
2022-08-19T01:23:16.431Z,6.85
2022-08-19T01:25:53.345Z,6.82
2022-08-19T01:28:33.942Z,7.10
2022-08-19T01:31:01.092Z,7.28
2022-08-19T01:33:34.747Z,7.90
2022-08-19T01:36:13.776Z,7.25
2022-08-19T01:38:44.116Z,7.70
2022-08-19T01:41:13.300Z,7.57
2022-08-19T01:44:12.373Z,8.90
2022-08-19T01:46:30.992Z,7.53
2022-08-19T01:48:57.756Z,7.15
2022-08-19T01:51:24.209Z,8.73
2022-08-19T01:53:52.126Z,8.05
2022-08-19T01:56:21.686Z,8.02
2022-08-19T01:58:54.864Z,9.30
2022-08-19T02:01:21.529Z,8.98
2022-08-19T02:03:48.147Z,8.30
2022-08-19T02:06:14.778Z,7.00
2022-08-19T02:08:41.246Z,7.95
2022-08-19T02:11:08.432Z,7.72
2022-08-19T02:13:35.569Z,8.68
2022-08-19T02:16:04.513Z,8.70
2022-08-19T02:18:31.066Z,8.00
2022-08-19T02:20:57.558Z,7.95
2022-08-19T02:23:24.064Z,7.28
2022-08-19T02:25:52.713Z,7.43
2022-08-19T02:28:19.358Z,7.68
2022-08-19T02:30:46.990Z,7.05
2022-08-19T02:33:13.421Z,7.57
2022-08-19T02:35:43.684Z,8.15
2022-08-19T02:38:28.530Z,8.23
2022-08-19T02:41:05.742Z,8.45
2022-08-19T02:43:37.310Z,9.70
2022-08-19T02:46:13.981Z,9.43
2022-08-19T02:48:40.632Z,8.88
2022-08-19T02:51:07.158Z,8.75
2022-08-19T02:53:33.835Z,9.68
2022-08-19T02:56:00.482Z,10.27
2022-08-19T02:58:27.778Z,9.45
2022-08-19T03:00:56.907Z,9.63
2022-08-19T03:03:24.342Z,10.40
2022-08-19T03:05:56.459Z,10.30
2022-08-19T03:08:25.134Z,10.40
2022-08-19T03:10:53.142Z,8.95
2022-08-19T03:13:19.597Z,9.55
2022-08-19T03:15:48.482Z,9.23
2022-08-19T03:18:16.251Z,9.70
2022-08-19T03:20:46.886Z,10.02
2022-08-19T03:23:13.792Z,9.98
2022-08-19T03:25:44.161Z,9.60
2022-08-19T03:28:13.338Z,10.95
2022-08-19T03:30:41.884Z,9.90
2022-08-19T03:33:18.194Z,10.10
2022-08-19T03:36:02.102Z,10.40
2022-08-19T03:38:29.488Z,10.68
2022-08-19T03:40:56.038Z,9.75
2022-08-19T03:43:22.573Z,9.77
2022-08-19T03:45:49.768Z,10.73
2022-08-19T03:48:18.247Z,10.55
2022-08-19T03:50:44.807Z,10.32
2022-08-19T03:53:11.506Z,11.48
2022-08-19T03:55:42.678Z,11.60
2022-08-19T03:58:09.193Z,11.23
2022-08-19T04:00:36.839Z,11.20
2022-08-19T04:03:03.591Z,11.45
2022-08-19T04:05:30.707Z,11.57
2022-08-19T04:07:59.768Z,12.23
2022-08-19T04:10:26.434Z,12.43
2022-08-19T04:12:53.330Z,13.00
2022-08-19T04:15:20.462Z,12.05
2022-08-19T04:17:47.181Z,13.18
2022-08-19T04:20:13.737Z,13.32
2022-08-19T04:22:40.244Z,13.77
2022-08-19T04:25:06.886Z,13.57
2022-08-19T04:27:34.324Z,13.75
2022-08-19T04:30:00.730Z,13.00
2022-08-19T04:32:27.361Z,14.02
2022-08-19T04:35:02.354Z,12.85
2022-08-19T04:37:44.292Z,13.27
2022-08-19T04:40:30.009Z,14.60
2022-08-19T04:42:57.307Z,11.57
2022-08-19T04:45:25.285Z,12.07
2022-08-19T04:47:58.661Z,13.95
2022-08-19T04:50:27.431Z,12.27
2022-08-19T04:52:54.156Z,12.75
2022-08-19T04:55:20.932Z,12.32
2022-08-19T04:57:47.590Z,12.07
2022-08-19T05:00:14.654Z,12.18
2022-08-19T05:02:41.496Z,12.07
2022-08-19T05:05:08.966Z,14.00
2022-08-19T05:07:36.047Z,13.25
2022-08-19T05:10:05.468Z,13.68
2022-08-19T05:12:32.487Z,13.50
2022-08-19T05:15:00.053Z,12.65
2022-08-19T05:17:29.083Z,14.35
2022-08-19T05:20:16.214Z,15.73
2022-08-19T05:22:43.880Z,15.52
2022-08-19T05:25:20.944Z,16.13
2022-08-19T05:27:48.320Z,16.30
2022-08-19T05:30:15.499Z,19.25
2022-08-19T05:32:42.064Z,19.50
2022-08-19T05:35:09.262Z,20.50
2022-08-19T05:37:35.783Z,20.48
2022-08-19T05:40:02.853Z,20.42
2022-08-19T05:42:29.533Z,20.70
2022-08-19T05:44:57.573Z,21.40
2022-08-19T05:47:24.121Z,23.58
2022-08-19T05:49:53.452Z,24.23
2022-08-19T05:52:26.144Z,25.13
2022-08-19T05:54:55.607Z,25.58
2022-08-19T05:57:22.278Z,25.98
2022-08-19T05:59:53.242Z,23.33
2022-08-19T06:02:29.543Z,24.88
2022-08-19T06:04:56.180Z,27.35
2022-08-19T06:07:22.874Z,26.95
2022-08-19T06:09:59.940Z,25.25
2022-08-19T06:12:31.540Z,26.45
2022-08-19T06:15:01.204Z,25.50
2022-08-19T06:17:32.219Z,26.90
2022-08-19T06:20:00.034Z,27.73
2022-08-19T06:22:27.623Z,25.75
2022-08-19T06:24:55.121Z,28.85
2022-08-19T06:27:22.768Z,28.17
2022-08-19T06:29:49.359Z,28.13
2022-08-19T06:32:19.090Z,28.65
2022-08-19T06:34:45.618Z,27.45
2022-08-19T06:37:12.772Z,26.83
2022-08-19T06:39:41.538Z,28.08
2022-08-19T06:42:11.067Z,28.02
2022-08-19T06:44:42.483Z,28.27
2022-08-19T06:47:14.562Z,29.23
2022-08-19T06:49:42.986Z,29.83
2022-08-19T06:52:14.192Z,28.77
2022-08-19T06:54:46.531Z,31.85
2022-08-19T06:57:22.218Z,30.35
2022-08-19T06:59:48.709Z,32.85
2022-08-19T07:02:15.560Z,29.48
2022-08-19T07:04:42.468Z,32.60
2022-08-19T07:07:21.126Z,31.13
2022-08-19T07:09:51.868Z,32.13
2022-08-19T07:12:25.249Z,30.52
2022-08-19T07:14:53.697Z,32.75
2022-08-19T07:17:21.136Z,28.58
2022-08-19T07:19:48.268Z,29.25
2022-08-19T07:22:16.050Z,31.83
2022-08-19T07:24:51.206Z,30.17
2022-08-19T07:27:24.675Z,31.00
2022-08-19T07:34:52.145Z,29.27
2022-08-19T07:37:18.614Z,29.60
2022-08-19T07:39:45.391Z,31.05
2022-08-19T07:42:13.283Z,31.88
2022-08-19T07:44:41.595Z,30.00
2022-08-19T07:47:08.159Z,27.73
2022-08-19T07:49:54.741Z,28.48
2022-08-19T07:52:21.361Z,30.15
2022-08-19T07:54:47.911Z,30.05
2022-08-19T07:57:14.384Z,28.55
2022-08-19T07:59:41.233Z,29.75
2022-08-19T08:02:09.503Z,29.48
2022-08-19T08:04:54.969Z,29.13
2022-08-19T08:07:40.132Z,30.05
2022-08-19T08:10:21.016Z,30.45
2022-08-19T08:13:08.807Z,28.23
2022-08-19T08:15:39.940Z,27.58
2022-08-19T08:18:08.562Z,30.20
2022-08-19T08:20:36.083Z,29.48
2022-08-19T08:23:21.120Z,27.92
2022-08-19T08:25:49.393Z,27.77
2022-08-19T08:28:17.964Z,28.38
2022-08-19T08:30:47.185Z,28.23
2022-08-19T08:35:46.696Z,29.55
2022-08-19T08:38:14.181Z,29.20
2022-08-19T08:40:50.824Z,30.08
2022-08-19T08:43:32.430Z,30.55
2022-08-19T08:46:14.551Z,29.38
2022-08-19T08:49:29.409Z,28.75
2022-08-19T08:52:10.971Z,27.58
2022-08-19T08:54:48.967Z,26.83
2022-08-19T08:57:40.794Z,25.35
2022-08-19T09:00:15.903Z,26.48
2022-08-19T09:02:43.605Z,25.05
2022-08-19T09:05:16.514Z,24.48
2022-08-19T09:08:08.029Z,22.98
2022-08-19T09:10:45.053Z,24.25
2022-08-19T09:13:37.565Z,22.35
2022-08-19T09:16:12.808Z,24.02
2022-08-19T09:18:42.411Z,20.75
2022-08-19T09:21:09.838Z,22.38
2022-08-19T09:23:37.569Z,21.45
2022-08-19T09:26:14.493Z,23.95
2022-08-19T09:28:45.560Z,20.98
2022-08-19T09:31:21.889Z,22.30
2022-08-19T09:33:49.430Z,22.98
2022-08-19T09:36:31.092Z,22.13
2022-08-19T09:39:01.467Z,22.85
2022-08-19T09:41:28.697Z,19.25
2022-08-19T09:43:58.029Z,23.30
2022-08-19T09:46:27.757Z,20.90
2022-08-19T09:48:54.962Z,22.23
2022-08-19T09:51:25.463Z,22.30
2022-08-19T09:53:54.596Z,20.95
2022-08-19T09:56:23.202Z,21.55
2022-08-19T09:58:51.362Z,20.17
2022-08-19T10:01:27.748Z,21.20
2022-08-19T10:03:57.641Z,20.20
2022-08-19T10:06:44.029Z,18.67
2022-08-19T10:09:13.402Z,18.23
2022-08-19T10:11:54.633Z,20.08
2022-08-19T10:14:24.487Z,18.23
2022-08-19T10:16:52.377Z,17.95
2022-08-19T10:19:25.334Z,19.40
2022-08-19T10:21:53.478Z,17.40
2022-08-19T10:24:21.374Z,17.77
2022-08-19T10:26:55.887Z,17.50
2022-08-19T10:29:33.024Z,14.00
2022-08-19T10:32:09.354Z,13.38
2022-08-19T10:34:38.209Z,12.82
2022-08-19T10:37:23.947Z,12.75
2022-08-19T10:39:55.971Z,13.02
2022-08-19T10:42:22.653Z,12.07
2022-08-19T10:44:49.310Z,10.38
2022-08-19T10:47:25.522Z,9.93
2022-08-19T10:50:15.473Z,9.68
2022-08-19T10:52:49.320Z,11.25
2022-08-19T10:55:45.225Z,10.45
2022-08-19T10:58:14.409Z,9.63
2022-08-19T11:00:41.484Z,9.95
2022-08-19T11:03:07.957Z,7.38
2022-08-19T11:05:39.765Z,8.25
2022-08-19T11:08:22.967Z,7.97
2022-08-19T11:10:54.606Z,7.25
2022-08-19T11:13:21.354Z,8.18
2022-08-19T11:15:48.406Z,7.50
2022-08-19T11:18:14.951Z,7.00
2022-08-19T11:20:41.566Z,6.32
2022-08-19T11:23:08.029Z,6.82
2022-08-19T11:25:35.658Z,6.88
2022-08-19T11:30:28.853Z,7.60
2022-08-19T11:32:55.291Z,6.47
2022-08-19T11:35:24.286Z,6.43
2022-08-19T11:37:50.848Z,6.10
2022-08-19T11:40:17.645Z,7.00
2022-08-19T11:42:57.489Z,6.55
2022-08-19T11:45:28.985Z,6.18
2022-08-19T11:47:56.203Z,6.03
2022-08-19T11:50:24.395Z,5.13
2022-08-19T11:52:55.351Z,5.10
2022-08-19T11:55:22.192Z,5.30
2022-08-19T11:57:48.721Z,6.13
2022-08-19T12:00:15.738Z,4.78
2022-08-19T12:02:43.303Z,4.78
2022-08-19T12:07:42.349Z,5.78
2022-08-19T12:10:09.447Z,5.10
2022-08-19T12:12:39.052Z,4.00
2022-08-19T12:15:08.259Z,3.50
2022-08-19T12:17:34.736Z,3.47
2022-08-19T12:20:01.441Z,3.63
2022-08-19T12:22:29.009Z,3.17
2022-08-19T12:27:32.023Z,2.38
2022-08-19T12:30:10.172Z,3.20
2022-08-19T12:32:37.258Z,3.38
2022-08-19T12:35:04.548Z,3.08
2022-08-19T12:37:32.540Z,2.85
2022-08-19T12:39:59.388Z,4.80
2022-08-19T12:42:25.860Z,3.50
2022-08-19T12:44:52.903Z,3.05
2022-08-19T12:47:19.758Z,3.38
2022-08-19T12:49:54.204Z,3.00
2022-08-19T12:52:26.101Z,3.60
2022-08-19T12:54:55.328Z,3.72
2022-08-19T12:57:32.638Z,3.78
2022-08-19T13:00:14.574Z,3.38
2022-08-19T13:02:45.141Z,3.20
2022-08-19T13:05:17.624Z,3.83
2022-08-19T13:07:47.025Z,3.22
2022-08-19T13:10:16.426Z,3.35
2022-08-19T13:12:44.042Z,2.28
2022-08-19T13:15:11.950Z,4.30
2022-08-19T13:17:39.886Z,4.20
2022-08-19T13:20:11.283Z,3.97
2022-08-19T13:22:38.662Z,4.85
2022-08-19T13:25:07.272Z,4.65
2022-08-19T13:27:34.293Z,4.10
2022-08-19T13:30:20.943Z,3.35
2022-08-19T13:33:06.085Z,1.63
2022-08-19T13:35:32.786Z,1.60
2022-08-19T13:37:59.266Z,1.77
2022-08-19T13:40:27.338Z,1.30
2022-08-19T13:42:55.596Z,1.25
2022-08-19T13:45:25.333Z,1.60
2022-08-19T13:47:59.322Z,1.17
2022-08-19T13:50:34.714Z,1.20
2022-08-19T13:53:02.393Z,1.02
2022-08-19T13:55:28.910Z,1.27
2022-08-19T13:57:58.357Z,1.08
2022-08-19T14:00:27.591Z,1.50
2022-08-19T14:02:56.678Z,1.20
2022-08-19T14:05:24.542Z,1.15
2022-08-19T14:07:51.317Z,1.35
2022-08-19T14:10:19.939Z,1.25
2022-08-19T14:12:47.376Z,1.15
2022-08-19T14:15:14.487Z,1.15
2022-08-19T14:17:44.358Z,0.90
2022-08-19T14:20:18.364Z,0.80
2022-08-19T14:22:48.361Z,0.90
2022-08-19T14:25:21.833Z,1.60
2022-08-19T14:27:49.168Z,1.20
2022-08-19T14:30:19.207Z,1.15
2022-08-19T14:32:45.745Z,0.90
2022-08-19T14:35:15.798Z,1.10
2022-08-19T14:38:06.792Z,1.20
2022-08-19T14:40:46.656Z,1.02
2022-08-19T14:43:25.046Z,0.85
2022-08-19T14:46:04.370Z,1.30
2022-08-19T14:52:19.577Z,0.98
2022-08-19T14:54:48.643Z,1.45
2022-08-19T14:57:16.875Z,1.05
2022-08-19T14:59:44.605Z,1.33
2022-08-19T15:02:34.206Z,1.15
2022-08-19T15:05:01.385Z,1.00
2022-08-19T15:07:29.679Z,1.00
2022-08-19T15:09:57.271Z,1.10
2022-08-19T15:14:55.148Z,1.15
2022-08-19T15:17:25.774Z,1.17
2022-08-19T15:20:11.371Z,0.95
2022-08-19T15:23:30.836Z,1.10
2022-08-19T15:25:57.453Z,1.05
2022-08-19T15:28:33.453Z,1.20
2022-08-19T15:31:00.238Z,1.13
2022-08-19T15:33:26.907Z,1.23
2022-08-19T15:35:54.099Z,1.23
2022-08-19T15:38:26.125Z,1.38
2022-08-19T15:40:53.674Z,0.95
2022-08-19T15:43:23.673Z,1.08
2022-08-19T15:45:50.248Z,0.95
2022-08-19T15:48:16.766Z,0.80
2022-08-19T15:50:43.595Z,1.10
2022-08-19T15:53:11.484Z,1.63
2022-08-19T15:55:43.519Z,1.67
2022-08-19T15:58:36.987Z,1.25
2022-08-19T16:01:26.919Z,1.17
2022-08-19T16:04:30.856Z,1.75
2022-08-19T16:06:58.736Z,1.63
2022-08-19T16:09:30.708Z,1.73
2022-08-19T16:12:04.993Z,1.48
2022-08-19T16:14:35.423Z,1.50
2022-08-19T16:17:06.052Z,2.30
2022-08-19T16:19:33.329Z,1.52
2022-08-19T16:21:59.889Z,1.90
2022-08-19T16:24:28.245Z,1.45
2022-08-19T16:26:55.876Z,1.88
2022-08-19T16:29:34.761Z,2.63
2022-08-19T16:32:10.891Z,1.30
2022-08-19T16:34:43.826Z,1.33
2022-08-19T16:37:11.178Z,1.65
2022-08-19T16:39:38.674Z,1.73
2022-08-19T16:44:35.226Z,1.05
2022-08-19T16:47:02.041Z,1.20
2022-08-19T16:49:53.465Z,1.20
2022-08-19T16:52:18.882Z,1.20
2022-08-19T16:54:45.482Z,1.20
2022-08-19T16:57:12.928Z,0.93
2022-08-19T16:59:43.852Z,1.20
2022-08-19T17:02:16.868Z,1.75
2022-08-19T17:04:43.307Z,1.40
2022-08-19T17:07:11.545Z,0.90
2022-08-19T17:09:38.423Z,1.00
2022-08-19T17:12:05.573Z,1.40
2022-08-19T17:14:32.210Z,1.55
2022-08-19T17:16:58.721Z,1.20
2022-08-19T17:19:25.393Z,1.35
2022-08-19T17:21:52.601Z,3.25
2022-08-19T17:24:19.471Z,2.25
2022-08-19T17:26:46.105Z,1.38
2022-08-19T17:29:12.740Z,1.90
2022-08-19T17:31:41.793Z,1.20
2022-08-19T17:34:09.292Z,1.33
2022-08-19T17:36:41.658Z,0.80
2022-08-19T17:39:08.272Z,1.10
2022-08-19T17:41:34.993Z,0.90
2022-08-19T17:44:04.544Z,1.08
2022-08-19T17:46:31.752Z,0.93
2022-08-19T17:48:59.053Z,0.90
2022-08-19T17:51:42.027Z,0.80
2022-08-19T17:54:19.853Z,0.98
2022-08-19T17:56:47.361Z,0.77
2022-08-19T17:59:14.615Z,0.60
2022-08-19T18:01:53.259Z,0.55
2022-08-19T18:06:53.022Z,0.60
2022-08-19T18:09:27.602Z,0.60
2022-08-19T18:11:57.276Z,0.40
2022-08-19T18:14:32.809Z,0.50
2022-08-19T18:17:05.373Z,0.52
2022-08-19T18:19:42.245Z,0.50
2022-08-19T18:22:24.320Z,0.77
2022-08-19T18:24:51.108Z,0.28
2022-08-19T18:27:17.655Z,0.38
2022-08-19T18:29:45.277Z,0.63
2022-08-19T18:34:45.832Z,0.43
2022-08-19T18:37:12.707Z,0.32
2022-08-19T18:39:57.883Z,0.30
2022-08-19T18:42:43.386Z,0.82
2022-08-19T18:45:32.437Z,0.63
2022-08-19T18:48:27.511Z,0.63
2022-08-19T18:50:59.772Z,0.50
2022-08-19T18:53:28.542Z,0.80
2022-08-19T18:55:55.661Z,0.63
2022-08-19T18:58:26.556Z,0.95
2022-08-19T19:00:56.878Z,0.52
2022-08-19T19:03:24.374Z,0.60
2022-08-19T19:05:53.447Z,1.17
2022-08-19T19:08:20.885Z,0.90
2022-08-19T19:10:54.635Z,1.08
2022-08-19T19:13:21.232Z,1.05
2022-08-19T19:15:48.112Z,1.13
2022-08-19T19:18:14.750Z,1.60
2022-08-19T19:20:41.614Z,1.10
2022-08-19T19:23:08.772Z,1.35
2022-08-19T19:25:49.593Z,1.27
2022-08-19T19:28:25.585Z,1.10
2022-08-19T19:30:54.301Z,1.60
2022-08-19T19:33:20.937Z,1.70
2022-08-19T19:35:47.620Z,1.75
2022-08-19T19:38:14.570Z,1.65
2022-08-19T19:40:41.122Z,1.80
2022-08-19T19:43:08.258Z,2.10
2022-08-19T19:45:34.972Z,1.60
2022-08-19T19:48:01.463Z,2.10
2022-08-19T19:50:31.548Z,1.75
2022-08-19T19:52:58.534Z,2.20
2022-08-19T19:55:26.695Z,1.67
2022-08-19T19:57:54.069Z,2.00
2022-08-19T20:02:50.430Z,2.00
2022-08-19T20:05:20.750Z,2.40
2022-08-19T20:08:05.883Z,2.60
2022-08-19T20:10:32.653Z,2.03
2022-08-19T20:13:02.248Z,2.60
2022-08-19T20:15:42.354Z,2.97
2022-08-19T20:18:12.120Z,3.15
2022-08-19T20:20:38.688Z,3.50
2022-08-19T20:23:05.481Z,3.10
2022-08-19T20:25:32.450Z,2.85
2022-08-19T20:28:01.305Z,3.80
2022-08-19T20:30:30.985Z,3.20
2022-08-19T20:33:06.707Z,3.38
2022-08-19T20:35:35.384Z,2.97
2022-08-19T20:38:03.594Z,3.83
2022-08-19T20:40:30.626Z,4.13
2022-08-19T20:42:59.969Z,3.85
2022-08-19T20:45:32.238Z,4.22
2022-08-19T20:48:04.324Z,4.05
2022-08-19T20:50:35.948Z,3.78
2022-08-19T20:53:13.536Z,4.25
2022-08-19T20:55:45.123Z,4.90
2022-08-19T20:58:13.561Z,4.05
2022-08-19T21:00:43.784Z,4.80
2022-08-19T21:03:15.045Z,5.25
2022-08-19T21:05:41.785Z,4.50
2022-08-19T21:08:09.042Z,5.20
2022-08-19T21:10:39.348Z,5.68
2022-08-19T21:13:08.358Z,5.47
2022-08-19T21:15:35.226Z,5.60
2022-08-19T21:18:01.714Z,4.97
2022-08-19T21:20:28.308Z,5.25
2022-08-19T21:22:54.786Z,4.88
2022-08-19T21:25:21.364Z,4.50
2022-08-19T21:27:47.983Z,3.80
2022-08-19T21:30:14.573Z,4.28
2022-08-19T21:32:41.142Z,3.35
2022-08-19T21:35:08.149Z,3.28
2022-08-19T21:37:35.436Z,3.45
2022-08-19T21:40:02.019Z,3.67
2022-08-19T21:42:29.918Z,3.95
2022-08-19T21:44:56.386Z,3.90
2022-08-19T21:47:22.884Z,4.03
2022-08-19T21:49:49.306Z,3.45
2022-08-19T21:52:22.277Z,4.13
2022-08-19T21:54:48.806Z,3.38
2022-08-19T21:57:15.521Z,3.67
2022-08-19T21:59:43.915Z,3.78
2022-08-19T22:02:20.338Z,3.72
2022-08-19T22:04:49.601Z,3.10
2022-08-19T22:07:18.407Z,3.30
2022-08-19T22:09:46.197Z,3.00
2022-08-19T22:12:30.735Z,4.32
2022-08-19T22:15:00.869Z,5.18
2022-08-19T22:17:27.969Z,3.90
2022-08-19T22:19:55.896Z,3.03
2022-08-19T22:22:28.934Z,3.03
2022-08-19T22:25:06.227Z,3.08
2022-08-19T22:27:32.812Z,3.58
2022-08-19T22:29:59.348Z,3.17
2022-08-19T22:32:28.561Z,3.60
2022-08-19T22:34:58.362Z,3.42
2022-08-19T22:37:25.992Z,3.20
2022-08-19T22:42:22.708Z,3.85
2022-08-19T22:44:49.449Z,3.65
2022-08-19T22:47:16.055Z,3.33
2022-08-19T22:49:42.534Z,3.63
2022-08-19T22:52:17.303Z,3.05
2022-08-19T22:54:46.035Z,3.03
2022-08-19T22:57:13.049Z,3.70
2022-08-19T22:59:40.858Z,3.75
2022-08-19T23:02:08.538Z,3.10
2022-08-19T23:07:01.836Z,3.55
2022-08-19T23:09:30.336Z,3.65
2022-08-19T23:11:57.327Z,2.92
2022-08-19T23:14:23.961Z,3.58
2022-08-19T23:16:51.409Z,4.20
2022-08-19T23:19:19.296Z,4.28
2022-08-19T23:21:45.818Z,3.58
2022-08-19T23:24:12.538Z,3.58
2022-08-19T23:26:59.786Z,3.25
2022-08-19T23:29:44.827Z,3.72
2022-08-19T23:32:11.466Z,4.53
2022-08-19T23:34:42.613Z,4.28
2022-08-19T23:37:11.755Z,3.85
2022-08-19T23:39:38.462Z,3.83
2022-08-19T23:42:14.174Z,3.45
2022-08-19T23:44:51.492Z,3.08
2022-08-19T23:47:19.077Z,2.90
2022-08-19T23:49:45.556Z,2.67
2022-08-19T23:52:12.029Z,2.65
2022-08-19T23:54:43.503Z,2.33
2022-08-19T23:57:13.220Z,2.50
2022-08-19T23:59:42.406Z,2.17
